Time;durP1;ratioP1;P1;durP2;ratioP2;P2;SDS_P1;SDS_P2;PMS_P1;PMS_P2;Temp;Humidity;BMP_temperature;BMP_pressure;BME280_temperature;BME280_humidity;BME280_pressure;Samples;Min_cycle;Max_cycle;Signal;HPM_P1;HPM_P2
2021/07/29 00:02:11;;;;;;;4.10;3.80;;;21.10;99.90;;;;;;4919424;29;20466;-78
2021/07/29 00:04:40;;;;;;;4.57;3.80;;;21.10;99.90;;;;;;4919464;29;20524;-77
2021/07/29 00:07:07;;;;;;;4.93;4.53;;;21.10;99.90;;;;;;4919427;29;20476;-76
2021/07/29 00:09:35;;;;;;;4.60;4.17;;;21.10;99.90;;;;;;4919296;29;20461;-76
2021/07/29 00:12:04;;;;;;;4.70;4.10;;;21.10;99.90;;;;;;4918975;29;20472;-77
2021/07/29 00:14:31;;;;;;;6.43;4.50;;;21.10;99.90;;;;;;4919130;29;20937;-77
2021/07/29 00:17:00;;;;;;;5.27;4.57;;;21.10;99.90;;;;;;4918990;29;20457;-77
2021/07/29 00:19:26;;;;;;;5.13;4.63;;;21.10;99.90;;;;;;4919044;29;20556;-77
2021/07/29 00:21:53;;;;;;;5.37;4.80;;;21.10;99.90;;;;;;4918471;29;20516;-77
2021/07/29 00:24:19;;;;;;;5.13;4.23;;;21.00;99.90;;;;;;4918982;29;20229;-77
2021/07/29 00:26:47;;;;;;;4.83;4.40;;;21.00;99.90;;;;;;4918915;29;20461;-77
2021/07/29 00:29:14;;;;;;;4.07;3.67;;;20.90;99.90;;;;;;4918924;29;20832;-77
2021/07/29 00:31:41;;;;;;;4.73;4.30;;;20.90;99.90;;;;;;4918885;29;20476;-77
2021/07/29 00:34:08;;;;;;;5.60;4.10;;;20.90;99.90;;;;;;4918710;29;20493;-77
2021/07/29 00:36:34;;;;;;;4.93;4.43;;;20.80;99.90;;;;;;4918915;29;20465;-77
2021/07/29 00:39:01;;;;;;;5.50;4.23;;;20.80;99.90;;;;;;4918517;29;20461;-77
2021/07/29 00:41:28;;;;;;;4.80;4.40;;;20.80;99.90;;;;;;4918420;29;20476;-77
2021/07/29 00:44:04;;;;;;;4.93;4.10;;;20.80;99.90;;;;;;4918854;29;20462;-77
2021/07/29 00:46:32;;;;;;;4.50;4.10;;;20.80;99.90;;;;;;4918656;29;20464;-75
2021/07/29 00:49:01;;;;;;;4.27;3.87;;;20.70;99.90;;;;;;4918781;29;20521;-76
2021/07/29 00:51:29;;;;;;;4.53;3.93;;;20.70;99.90;;;;;;4918245;29;20574;-75
2021/07/29 00:53:56;;;;;;;6.37;4.37;;;20.70;99.90;;;;;;4918551;29;20489;-75
2021/07/29 00:56:26;;;;;;;4.60;4.20;;;20.70;99.90;;;;;;4918530;29;20465;-75
2021/07/29 00:58:54;;;;;;;5.10;4.53;;;20.70;99.90;;;;;;4918066;29;20469;-75
2021/07/29 01:01:23;;;;;;;6.00;5.40;;;20.70;99.90;;;;;;4918510;29;20529;-75
2021/07/29 01:03:50;;;;;;;4.60;4.20;;;20.60;99.90;;;;;;4918428;29;20492;-75
2021/07/29 01:06:17;;;;;;;5.53;4.30;;;20.60;99.90;;;;;;4918438;29;20950;-75
2021/07/29 01:08:59;;;;;;;4.40;4.00;;;20.60;99.90;;;;;;4918482;29;20482;-75
2021/07/29 01:11:26;;;;;;;4.83;4.33;;;20.60;99.90;;;;;;4918474;29;20500;-75
2021/07/29 01:13:53;;;;;;;5.10;4.10;;;20.60;99.90;;;;;;4917982;29;20662;-75
2021/07/29 01:16:20;;;;;;;4.80;4.20;;;20.60;99.90;;;;;;4918034;29;20473;-75
2021/07/29 01:18:48;;;;;;;4.97;4.00;;;20.60;99.90;;;;;;4918432;29;20466;-74
2021/07/29 01:21:16;;;;;;;4.37;3.97;;;20.60;99.90;;;;;;4918622;29;20461;-75
2021/07/29 01:23:44;;;;;;;4.13;3.77;;;20.60;99.90;;;;;;4918442;29;20466;-74
2021/07/29 01:26:10;;;;;;;5.07;4.63;;;20.60;99.90;;;;;;4918169;29;20466;-75
2021/07/29 01:28:37;;;;;;;5.10;4.70;;;20.60;99.90;;;;;;4918091;29;20549;-74
2021/07/29 01:31:04;;;;;;;4.60;4.20;;;20.60;99.90;;;;;;4918142;29;20770;-75
2021/07/29 01:33:31;;;;;;;4.37;4.07;;;20.60;99.90;;;;;;4920977;29;20971;-75
2021/07/29 01:35:58;;;;;;;4.73;4.33;;;20.60;99.90;;;;;;4922049;29;20469;-75
2021/07/29 01:38:26;;;;;;;7.23;4.00;;;20.60;99.90;;;;;;4921600;29;20461;-76
2021/07/29 01:40:55;;;;;;;5.40;4.90;;;20.60;99.90;;;;;;4921883;29;20476;-75
2021/07/29 01:43:22;;;;;;;4.27;3.90;;;20.50;99.90;;;;;;4921762;29;20464;-75
2021/07/29 01:45:49;;;;;;;4.23;3.83;;;20.50;99.90;;;;;;4921676;29;20948;-75
2021/07/29 01:48:15;;;;;;;4.67;4.27;;;20.50;99.90;;;;;;4921511;29;20930;-75
2021/07/29 01:50:43;;;;;;;5.00;4.00;;;20.40;99.90;;;;;;4921631;29;20473;-75
2021/07/29 01:53:10;;;;;;;4.87;4.37;;;20.40;99.90;;;;;;4921299;29;20572;-75
2021/07/29 01:55:40;;;;;;;5.10;4.60;;;20.30;99.90;;;;;;4921553;29;20769;-75
2021/07/29 01:58:07;;;;;;;6.00;4.10;;;20.30;99.90;;;;;;4921769;29;20508;-75
2021/07/29 02:00:34;;;;;;;4.73;4.23;;;20.30;99.90;;;;;;4921497;29;20841;-75
2021/07/29 02:03:03;;;;;;;4.77;4.33;;;20.20;99.90;;;;;;4921495;29;20493;-75
2021/07/29 02:05:29;;;;;;;5.57;4.30;;;20.20;99.90;;;;;;4921554;29;20461;-75
2021/07/29 02:07:56;;;;;;;4.30;3.90;;;20.20;99.90;;;;;;4921203;29;20536;-75
2021/07/29 02:10:23;;;;;;;5.00;4.07;;;20.20;99.90;;;;;;4921248;29;20513;-75
2021/07/29 02:12:51;;;;;;;4.40;3.90;;;20.20;99.90;;;;;;4921331;29;20492;-75
2021/07/29 02:15:18;;;;;;;6.00;4.23;;;20.20;99.90;;;;;;4921470;29;20472;-75
2021/07/29 02:17:48;;;;;;;4.30;3.90;;;20.10;99.90;;;;;;4920861;29;20476;-75
2021/07/29 02:20:15;;;;;;;11.10;4.50;;;20.10;99.90;;;;;;4921209;29;20465;-75
2021/07/29 02:22:42;;;;;;;4.53;4.13;;;20.10;99.90;;;;;;4921288;29;20546;-75
2021/07/29 02:25:12;;;;;;;3.93;3.63;;;20.10;99.90;;;;;;4921188;29;20457;-75
2021/07/29 02:27:38;;;;;;;4.77;4.23;;;20.10;99.90;;;;;;4920904;29;20993;-75
2021/07/29 02:30:07;;;;;;;4.30;3.90;;;20.00;99.90;;;;;;4921221;29;20465;-75
2021/07/29 02:32:34;;;;;;;4.77;4.03;;;20.00;99.90;;;;;;4921192;29;20774;-75
2021/07/29 02:35:01;;;;;;;7.73;5.00;;;19.90;99.90;;;;;;4920737;29;20489;-75
2021/07/29 02:37:27;;;;;;;3.97;3.67;;;19.90;99.90;;;;;;4920748;29;20938;-74
2021/07/29 02:39:54;;;;;;;4.40;4.00;;;19.90;99.90;;;;;;4921053;29;20476;-75
2021/07/29 02:42:21;;;;;;;4.40;3.90;;;19.90;99.90;;;;;;4920650;29;20465;-75
2021/07/29 02:44:47;;;;;;;4.00;3.50;;;19.90;99.90;;;;;;4919865;29;20457;-75
2021/07/29 02:47:15;;;;;;;6.90;3.80;;;19.90;99.90;;;;;;4920780;29;20838;-75
2021/07/29 02:49:42;;;;;;;4.33;3.93;;;19.80;99.90;;;;;;4920628;29;20476;-75
2021/07/29 02:52:09;;;;;;;7.37;4.20;;;19.80;99.90;;;;;;4920388;29;20465;-75
2021/07/29 02:54:36;;;;;;;4.80;4.40;;;19.80;99.90;;;;;;4920732;29;20807;-75
2021/07/29 02:57:03;;;;;;;4.23;3.93;;;19.80;99.90;;;;;;4920265;29;20466;-75
2021/07/29 02:59:29;;;;;;;4.50;4.03;;;19.80;99.90;;;;;;4920555;29;20541;-75
2021/07/29 03:01:56;;;;;;;4.20;3.80;;;19.80;99.90;;;;;;4920193;29;20938;-75
2021/07/29 03:04:25;;;;;;;3.77;3.43;;;19.70;99.90;;;;;;4920301;29;20476;-75
2021/07/29 03:06:53;;;;;;;4.20;3.80;;;19.70;99.90;;;;;;4920450;29;20765;-75
2021/07/29 03:09:20;;;;;;;4.47;4.03;;;19.70;99.90;;;;;;4920578;29;20532;-75
2021/07/29 03:11:46;;;;;;;4.97;3.30;;;19.60;99.90;;;;;;4920470;29;20838;-75
2021/07/29 03:14:16;;;;;;;4.53;3.80;;;19.60;99.90;;;;;;4920326;29;20557;-76
2021/07/29 03:16:42;;;;;;;3.83;3.43;;;19.50;99.90;;;;;;4920063;29;20568;-75
2021/07/29 03:19:12;;;;;;;4.30;3.90;;;19.50;99.90;;;;;;4919816;29;20777;-75
2021/07/29 03:21:40;;;;;;;4.13;3.73;;;19.50;99.90;;;;;;4920032;29;20465;-75
2021/07/29 03:24:07;;;;;;;4.13;3.60;;;19.40;99.90;;;;;;4919733;29;20464;-75
2021/07/29 03:26:34;;;;;;;6.50;4.27;;;19.40;99.90;;;;;;4920119;29;20517;-75
2021/07/29 03:29:01;;;;;;;7.47;4.07;;;19.40;99.90;;;;;;4919825;29;20524;-75
2021/07/29 03:31:30;;;;;;;5.47;4.77;;;19.30;99.90;;;;;;4919925;29;20529;-75
2021/07/29 03:33:57;;;;;;;4.50;4.10;;;19.30;99.90;;;;;;4919989;29;20485;-75
2021/07/29 03:36:23;;;;;;;4.83;4.33;;;19.30;99.90;;;;;;4919730;29;20469;-75
2021/07/29 03:38:54;;;;;;;4.00;3.60;;;19.30;99.90;;;;;;4919765;29;20465;-75
2021/07/29 03:41:21;;;;;;;4.17;3.77;;;19.30;99.90;;;;;;4919585;29;20895;-75
2021/07/29 03:43:47;;;;;;;4.13;3.83;;;19.20;99.90;;;;;;4919759;29;20515;-75
2021/07/29 03:46:14;;;;;;;4.47;4.07;;;19.20;99.90;;;;;;4919597;29;20462;-75
2021/07/29 03:48:41;;;;;;;4.20;3.87;;;19.20;99.90;;;;;;4919674;29;20465;-75
2021/07/29 03:51:12;;;;;;;5.20;3.53;;;19.20;99.90;;;;;;4919379;29;20473;-75
2021/07/29 03:53:39;;;;;;;4.63;4.23;;;19.20;99.90;;;;;;4919349;29;20568;-75
2021/07/29 03:56:08;;;;;;;4.60;3.70;;;19.20;99.90;;;;;;4919486;29;20477;-75
2021/07/29 03:58:36;;;;;;;4.50;4.10;;;19.20;99.90;;;;;;4919306;29;20474;-75
2021/07/29 04:01:07;;;;;;;4.23;3.83;;;19.10;99.90;;;;;;4919774;29;20875;-75
2021/07/29 04:03:33;;;;;;;4.83;4.10;;;19.20;99.90;;;;;;4919121;29;20449;-75
2021/07/29 04:06:02;;;;;;;5.57;3.40;;;19.20;99.90;;;;;;4919353;29;20503;-75
2021/07/29 04:08:29;;;;;;;6.10;4.30;;;19.20;99.90;;;;;;4919501;29;20525;-75
2021/07/29 04:10:58;;;;;;;4.73;3.67;;;19.20;99.90;;;;;;4919693;29;20462;-75
2021/07/29 04:13:27;;;;;;;3.80;3.47;;;19.20;99.90;;;;;;4918763;29;20493;-75
2021/07/29 04:16:05;;;;;;;5.03;3.70;;;19.20;99.90;;;;;;4919082;29;20469;-75
2021/07/29 04:18:32;;;;;;;4.07;3.47;;;19.20;99.90;;;;;;4919107;29;20450;-75
2021/07/29 04:20:59;;;;;;;3.63;3.30;;;19.20;99.90;;;;;;4918984;29;20476;-75
2021/07/29 04:23:26;;;;;;;6.07;3.77;;;19.20;99.90;;;;;;4918870;29;20878;-75
2021/07/29 04:25:53;;;;;;;4.73;3.50;;;19.20;99.90;;;;;;4918820;29;20465;-75
2021/07/29 04:28:19;;;;;;;3.50;3.20;;;19.30;99.90;;;;;;4919011;29;20466;-75
2021/07/29 04:30:47;;;;;;;4.30;3.47;;;19.30;99.90;;;;;;4918850;29;20568;-75
2021/07/29 04:33:14;;;;;;;3.47;2.93;;;19.30;99.90;;;;;;4918689;29;20458;-75
2021/07/29 04:35:41;;;;;;;3.93;3.50;;;19.20;99.90;;;;;;4918551;29;20519;-76
2021/07/29 04:38:08;;;;;;;4.00;3.57;;;19.20;99.90;;;;;;4918536;29;20468;-76
2021/07/29 04:40:35;;;;;;;4.00;3.60;;;19.20;99.90;;;;;;4918674;29;20521;-76
2021/07/29 04:43:01;;;;;;;4.87;4.30;;;19.20;99.90;;;;;;4918873;29;20461;-76
2021/07/29 04:45:28;;;;;;;4.20;3.60;;;19.20;99.90;;;;;;4918649;29;20466;-76
2021/07/29 04:47:56;;;;;;;4.43;3.97;;;19.10;99.90;;;;;;4919224;29;20461;-76
2021/07/29 04:50:25;;;;;;;3.77;3.47;;;19.20;99.90;;;;;;4918381;29;20781;-76
2021/07/29 04:52:53;;;;;;;4.13;3.50;;;19.20;99.90;;;;;;4918443;29;20552;-75
2021/07/29 04:55:20;;;;;;;8.10;4.13;;;19.20;99.90;;;;;;4918570;29;20485;-74
2021/07/29 04:57:47;;;;;;;4.30;3.60;;;19.20;99.90;;;;;;4918499;29;20809;-74
2021/07/29 05:00:14;;;;;;;5.07;3.50;;;19.20;99.90;;;;;;4919001;29;20457;-74
2021/07/29 05:02:41;;;;;;;3.97;3.27;;;19.20;99.90;;;;;;4918571;29;20480;-74
2021/07/29 05:05:10;;;;;;;3.90;3.50;;;19.10;99.90;;;;;;4918900;29;20457;-74
2021/07/29 05:07:37;;;;;;;5.50;3.77;;;19.10;99.90;;;;;;4921572;29;20934;-74
2021/07/29 05:10:04;;;;;;;5.73;3.80;;;19.10;99.90;;;;;;4925294;29;20481;-74
2021/07/29 05:12:31;;;;;;;3.73;3.40;;;19.10;99.90;;;;;;4925255;29;20973;-76
2021/07/29 05:14:58;;;;;;;3.77;3.37;;;19.10;99.90;;;;;;4925189;29;20484;-76
2021/07/29 05:17:25;;;;;;;4.70;4.30;;;19.10;99.90;;;;;;4925433;29;20464;-77
2021/07/29 05:19:51;;;;;;;4.17;3.77;;;19.10;99.90;;;;;;4925743;29;20465;-77
2021/07/29 05:22:20;;;;;;;5.47;3.77;;;19.00;99.90;;;;;;4925205;29;20472;-76
2021/07/29 05:24:46;;;;;;;5.03;3.73;;;19.00;99.90;;;;;;4925596;29;20467;-75
2021/07/29 05:27:13;;;;;;;4.50;4.10;;;19.10;99.90;;;;;;4925504;29;20469;-77
2021/07/29 05:29:40;;;;;;;4.70;4.20;;;19.00;99.90;;;;;;4925038;29;20465;-76
2021/07/29 05:32:10;;;;;;;4.20;3.77;;;19.00;99.90;;;;;;4924916;29;20472;-77
2021/07/29 05:34:36;;;;;;;5.10;3.80;;;19.10;99.90;;;;;;4924706;29;20489;-75
2021/07/29 05:37:07;;;;;;;4.97;3.50;;;19.10;99.90;;;;;;4925000;29;20546;-76
2021/07/29 05:39:35;;;;;;;4.20;3.90;;;19.10;99.90;;;;;;4924744;29;20579;-76
2021/07/29 05:42:04;;;;;;;4.03;3.63;;;19.20;99.90;;;;;;4924210;29;20472;-76
2021/07/29 05:44:36;;;;;;;7.70;3.60;;;19.30;99.90;;;;;;4924676;29;20798;-76
2021/07/29 05:47:03;;;;;;;8.53;3.80;;;19.30;99.90;;;;;;4924326;29;20456;-76
2021/07/29 05:49:29;;;;;;;6.27;4.07;;;19.30;99.90;;;;;;4924347;29;20472;-74
2021/07/29 05:51:56;;;;;;;3.60;3.00;;;19.40;99.90;;;;;;4924309;29;20465;-75
2021/07/29 05:54:23;;;;;;;3.73;3.10;;;19.40;99.90;;;;;;4924602;29;20824;-75
2021/07/29 05:56:51;;;;;;;6.73;3.50;;;19.40;99.90;;;;;;4924512;29;20556;-76
2021/07/29 05:59:17;;;;;;;3.70;3.40;;;19.50;99.90;;;;;;4924454;29;20469;-75
2021/07/29 06:01:47;;;;;;;3.03;2.70;;;19.60;99.90;;;;;;4924485;29;20464;-75
2021/07/29 06:04:14;;;;;;;3.93;3.37;;;19.60;99.90;;;;;;4924443;29;20469;-76
2021/07/29 06:06:42;;;;;;;3.60;3.07;;;19.60;99.90;;;;;;4924091;29;20461;-76
2021/07/29 06:09:09;;;;;;;3.50;3.20;;;19.60;99.90;;;;;;4924249;29;20875;-76
2021/07/29 06:11:36;;;;;;;4.00;3.10;;;19.70;99.90;;;;;;4924397;29;20469;-76
2021/07/29 06:14:04;;;;;;;3.80;3.40;;;19.70;99.90;;;;;;4924212;29;20485;-76
2021/07/29 06:16:30;;;;;;;3.60;3.30;;;19.80;99.90;;;;;;4924160;29;20929;-77
2021/07/29 06:19:05;;;;;;;17.93;3.87;;;19.80;99.90;;;;;;4921752;29;20465;-76
2021/07/29 06:21:32;;;;;;;4.70;3.40;;;19.90;99.90;;;;;;4921079;29;20890;-76
2021/07/29 06:24:01;;;;;;;3.50;3.20;;;20.00;99.90;;;;;;4921214;29;20547;-75
2021/07/29 06:26:28;;;;;;;3.53;3.23;;;19.90;99.90;;;;;;4921381;29;20780;-75
2021/07/29 06:28:55;;;;;;;4.70;3.30;;;20.00;99.90;;;;;;4921304;29;20465;-75
2021/07/29 06:31:23;;;;;;;3.63;3.30;;;20.10;99.90;;;;;;4921532;29;20461;-76
2021/07/29 06:33:50;;;;;;;4.17;3.77;;;20.10;99.90;;;;;;4921474;29;20465;-76
2021/07/29 06:36:17;;;;;;;8.87;3.20;;;20.20;99.90;;;;;;4920585;29;20989;-76
2021/07/29 06:38:44;;;;;;;6.37;2.90;;;20.20;99.90;;;;;;4921243;29;20465;-76
2021/07/29 06:41:14;;;;;;;4.73;3.17;;;20.30;99.90;;;;;;4921066;29;20466;-76
2021/07/29 06:43:43;;;;;;;5.20;3.00;;;20.30;99.90;;;;;;4921072;29;20488;-76
2021/07/29 06:46:10;;;;;;;4.83;3.40;;;20.40;99.90;;;;;;4921009;29;20461;-76
2021/07/29 06:48:39;;;;;;;4.10;3.20;;;20.50;99.90;;;;;;4920992;29;20759;-76
2021/07/29 06:51:06;;;;;;;4.33;2.93;;;20.50;99.90;;;;;;4921095;29;20787;-77
2021/07/29 06:53:34;;;;;;;3.20;2.80;;;20.60;99.90;;;;;;4920704;29;20462;-76
2021/07/29 06:56:01;;;;;;;4.60;3.60;;;20.60;99.90;;;;;;4920932;29;20492;-76
2021/07/29 06:58:31;;;;;;;3.20;2.90;;;20.70;99.90;;;;;;4921041;29;20923;-76
2021/07/29 07:01:01;;;;;;;3.73;2.93;;;20.80;99.90;;;;;;4921036;29;20461;-76
2021/07/29 07:03:28;;;;;;;4.30;2.83;;;20.80;99.90;;;;;;4920581;29;20825;-76
2021/07/29 07:06:00;;;;;;;3.17;2.60;;;20.90;99.90;;;;;;4920601;29;20468;-76
2021/07/29 07:08:26;;;;;;;2.70;2.50;;;21.00;99.90;;;;;;4920012;29;20457;-76
2021/07/29 07:10:53;;;;;;;3.90;2.80;;;21.10;99.90;;;;;;4921270;29;20458;-76
2021/07/29 07:13:20;;;;;;;3.23;2.73;;;21.10;99.90;;;;;;4920777;29;20881;-76
2021/07/29 07:15:47;;;;;;;2.87;2.60;;;21.20;99.90;;;;;;4920867;29;20834;-76
2021/07/29 07:18:14;;;;;;;3.90;2.50;;;21.30;99.90;;;;;;4920705;29;20461;-75
2021/07/29 07:20:41;;;;;;;5.63;2.20;;;21.30;99.90;;;;;;4921250;29;20461;-76
2021/07/29 07:23:09;;;;;;;3.00;2.50;;;21.40;99.90;;;;;;4920600;29;20492;-76
2021/07/29 07:25:37;;;;;;;2.93;2.20;;;21.40;99.90;;;;;;4920007;29;20462;-77
2021/07/29 07:28:04;;;;;;;2.97;2.67;;;21.40;99.90;;;;;;4920069;29;20861;-73
2021/07/29 07:30:32;;;;;;;3.30;3.00;;;21.50;99.90;;;;;;4919889;29;20466;-76
2021/07/29 07:33:00;;;;;;;2.30;2.10;;;21.50;99.90;;;;;;4920085;29;20497;-76
2021/07/29 07:35:27;;;;;;;3.83;2.57;;;21.60;99.90;;;;;;4920026;29;20513;-75
2021/07/29 07:37:54;;;;;;;3.00;2.60;;;21.60;99.90;;;;;;4921997;29;20469;-76
2021/07/29 07:40:22;;;;;;;2.23;2.03;;;21.60;99.90;;;;;;4924641;29;20461;-76
2021/07/29 07:42:50;;;;;;;2.73;2.07;;;21.70;99.90;;;;;;4925267;29;20462;-76
2021/07/29 07:45:16;;;;;;;5.93;2.80;;;21.80;99.90;;;;;;4924566;29;20462;-76
2021/07/29 07:47:43;;;;;;;4.47;2.83;;;21.80;99.90;;;;;;4923006;29;20461;-75
2021/07/29 07:50:10;;;;;;;3.30;2.40;;;21.90;99.90;;;;;;4921174;29;20851;-76
2021/07/29 07:52:37;;;;;;;2.70;2.00;;;21.90;99.90;;;;;;4921951;29;20516;-75
2021/07/29 07:55:04;;;;;;;2.50;2.30;;;22.00;99.90;;;;;;4921438;29;20496;-76
2021/07/29 07:57:40;;;;;;;3.57;2.60;;;21.90;99.90;;;;;;4921673;29;20776;-76
2021/07/29 08:00:08;;;;;;;2.30;2.00;;;21.90;99.90;;;;;;4921819;29;20768;-78
2021/07/29 08:02:35;;;;;;;4.50;2.20;;;21.90;99.90;;;;;;4924025;29;20497;-75
2021/07/29 08:05:02;;;;;;;5.63;2.43;;;22.00;99.90;;;;;;4923402;29;20950;-76
2021/07/29 08:07:29;;;;;;;2.67;2.30;;;22.10;99.90;;;;;;4923936;29;20908;-76
2021/07/29 08:09:56;;;;;;;2.40;2.20;;;22.20;99.90;;;;;;4923245;29;20461;-76
2021/07/29 08:12:23;;;;;;;3.73;2.00;;;22.30;99.90;;;;;;4923884;29;20552;-76
2021/07/29 08:14:51;;;;;;;3.60;1.90;;;22.30;99.90;;;;;;4925133;29;20450;-79
2021/07/29 08:17:18;;;;;;;2.83;2.53;;;22.30;99.90;;;;;;4924465;29;20480;-76
2021/07/29 08:19:45;;;;;;;5.93;2.30;;;22.30;99.90;;;;;;4920403;29;20465;-76
2021/07/29 08:22:11;;;;;;;5.07;2.33;;;22.30;99.90;;;;;;4919778;29;20968;-76
2021/07/29 08:24:38;;;;;;;2.57;2.37;;;22.30;99.90;;;;;;4920421;29;20476;-76
2021/07/29 08:27:05;;;;;;;5.93;2.40;;;22.40;99.90;;;;;;4920716;29;20461;-77
2021/07/29 08:29:32;;;;;;;3.27;2.57;;;22.40;99.90;;;;;;4919395;29;20494;-76
2021/07/29 08:32:04;;;;;;;3.50;2.80;;;22.40;99.90;;;;;;4919537;29;20805;-75
2021/07/29 08:34:31;;;;;;;4.57;2.90;;;22.40;99.90;;;;;;4919632;29;20509;-76
2021/07/29 08:36:58;;;;;;;3.40;2.27;;;22.30;99.90;;;;;;4919721;29;20493;-75
2021/07/29 08:39:25;;;;;;;3.33;2.53;;;22.30;99.90;;;;;;4920328;29;20465;-77
2021/07/29 08:41:54;;;;;;;8.57;2.70;;;22.30;99.90;;;;;;4919802;29;20466;-76
2021/07/29 08:44:21;;;;;;;3.40;2.50;;;22.40;99.90;;;;;;4920055;29;20840;-74
2021/07/29 08:46:50;;;;;;;3.90;2.47;;;22.30;99.90;;;;;;4919812;29;20462;-75
2021/07/29 08:49:25;;;;;;;4.57;2.60;;;22.20;99.90;;;;;;4920147;29;20473;-76
2021/07/29 08:51:52;;;;;;;2.30;2.00;;;22.20;99.90;;;;;;4918685;29;20522;-74
2021/07/29 08:54:19;;;;;;;2.90;2.53;;;22.10;99.90;;;;;;4918854;29;20460;-74
2021/07/29 08:56:46;;;;;;;3.37;2.10;;;22.10;99.90;;;;;;4919024;29;20500;-74
2021/07/29 08:59:15;;;;;;;4.90;2.40;;;22.10;99.90;;;;;;4918878;29;20476;-74
2021/07/29 09:01:43;;;;;;;4.23;2.60;;;22.10;99.90;;;;;;4919068;29;20465;-74
2021/07/29 09:04:11;;;;;;;4.50;2.77;;;22.20;99.90;;;;;;4918480;29;20777;-76
2021/07/29 09:06:56;;;;;;;3.33;2.47;;;22.20;99.90;;;;;;4918735;29;20528;-74
2021/07/29 09:09:39;;;;;;;3.07;2.43;;;22.40;99.90;;;;;;4918871;29;20442;-76
2021/07/29 09:12:24;;;;;;;5.30;2.43;;;22.50;99.90;;;;;;4918873;29;20493;-76
2021/07/29 09:14:54;;;;;;;4.57;2.83;;;22.60;99.90;;;;;;4918540;29;20557;-76
2021/07/29 09:17:22;;;;;;;2.67;2.03;;;22.70;99.90;;;;;;4918769;29;20944;-76
2021/07/29 09:19:50;;;;;;;2.63;2.40;;;22.80;99.90;;;;;;4918618;29;20461;-76
2021/07/29 09:22:22;;;;;;;5.20;2.47;;;22.90;99.90;;;;;;4918993;29;20501;-76
2021/07/29 09:25:02;;;;;;;5.23;2.53;;;23.10;99.90;;;;;;4918764;29;20441;-74
2021/07/29 09:27:41;;;;;;;3.40;2.60;;;23.20;99.90;;;;;;4918511;29;20452;-75
2021/07/29 09:30:13;;;;;;;5.60;2.70;;;23.20;99.90;;;;;;4918797;29;20442;-72
2021/07/29 09:32:58;;;;;;;2.67;2.43;;;23.20;99.90;;;;;;4918419;29;20462;-75
2021/07/29 09:35:36;;;;;;;4.80;2.33;;;23.20;99.90;;;;;;4918519;29;20568;-75
2021/07/29 09:38:06;;;;;;;4.70;2.70;;;23.40;99.90;;;;;;4918487;29;20449;-75
2021/07/29 09:40:45;;;;;;;4.40;2.73;;;23.50;99.90;;;;;;4918313;29;20920;-76
2021/07/29 09:43:16;;;;;;;4.70;3.20;;;23.50;99.90;;;;;;4918577;29;20798;-75
2021/07/29 09:45:45;;;;;;;5.50;2.70;;;23.50;99.90;;;;;;4918150;29;20477;-75
2021/07/29 09:48:12;;;;;;;2.90;2.40;;;23.50;99.90;;;;;;4918322;29;20914;-75
2021/07/29 09:50:41;;;;;;;3.03;2.70;;;23.50;99.90;;;;;;4918259;29;20469;-75
2021/07/29 09:53:09;;;;;;;2.67;2.33;;;23.30;99.90;;;;;;4919266;29;20465;-75
2021/07/29 09:55:36;;;;;;;4.57;2.50;;;23.00;99.90;;;;;;4922003;29;21021;-75
2021/07/29 09:58:04;;;;;;;3.70;2.53;;;22.80;99.90;;;;;;4921316;29;20934;-75
2021/07/29 10:00:32;;;;;;;3.20;2.87;;;22.60;99.90;;;;;;4921938;29;20465;-76
2021/07/29 10:03:00;;;;;;;3.00;2.47;;;22.50;99.90;;;;;;4921527;29;20457;-76
2021/07/29 10:05:38;;;;;;;4.00;3.00;;;22.40;99.90;;;;;;4922021;29;20465;-76
2021/07/29 10:08:11;;;;;;;4.10;2.90;;;22.40;99.90;;;;;;4921709;29;20472;-74
2021/07/29 10:10:38;;;;;;;4.73;2.93;;;22.40;99.90;;;;;;4921491;29;20456;-76
2021/07/29 10:13:05;;;;;;;3.47;2.87;;;22.40;99.90;;;;;;4921616;29;20496;-76
2021/07/29 10:15:39;;;;;;;4.13;2.40;;;22.40;99.90;;;;;;4921295;29;20473;-75
2021/07/29 10:18:07;;;;;;;3.60;2.70;;;22.50;99.90;;;;;;4921892;29;20499;-76
2021/07/29 10:20:37;;;;;;;3.83;2.70;;;22.50;99.90;;;;;;4921947;29;20461;-75
2021/07/29 10:23:52;;;;;;;3.87;2.93;;;22.40;99.90;;;;;;4921656;29;20859;-76
2021/07/29 10:26:19;;;;;;;3.40;2.97;;;22.30;99.90;;;;;;4921449;29;20473;-75
2021/07/29 10:28:46;;;;;;;3.83;2.33;;;22.30;99.90;;;;;;4921378;29;20464;-75
2021/07/29 10:31:17;;;;;;;4.13;2.50;;;22.50;99.90;;;;;;4921485;29;20469;-75
2021/07/29 10:33:45;;;;;;;3.40;2.30;;;22.60;99.90;;;;;;4921329;29;20458;-76
2021/07/29 10:36:41;;;;;;;4.07;2.40;;;22.80;99.90;;;;;;4920682;29;20496;-74
2021/07/29 10:39:10;;;;;;;2.90;2.20;;;22.70;99.90;;;;;;4913443;29;20461;-74
2021/07/29 10:42:01;;;;;;;3.03;2.43;;;22.60;99.90;;;;;;4921180;29;20491;-72
2021/07/29 10:44:47;;;;;;;3.30;2.50;;;22.60;99.90;;;;;;4921332;29;20517;-74
2021/07/29 10:47:37;;;;;;;3.87;3.10;;;22.70;99.90;;;;;;4920946;29;20778;-74
2021/07/29 10:50:14;;;;;;;2.40;2.20;;;22.90;99.90;;;;;;4920483;29;20470;-74
2021/07/29 10:52:45;;;;;;;5.33;2.43;;;23.10;99.90;;;;;;4920953;29;20457;-75
2021/07/29 10:55:13;;;;;;;2.63;2.37;;;23.10;99.90;;;;;;4920717;29;20442;-75
2021/07/29 10:57:41;;;;;;;2.57;2.37;;;23.40;99.90;;;;;;4920890;29;20495;-73
2021/07/29 11:00:08;;;;;;;3.70;2.30;;;23.60;99.90;;;;;;4920977;29;20493;-73
2021/07/29 11:02:46;;;;;;;3.83;2.53;;;23.70;99.90;;;;;;4920493;29;20626;-72
2021/07/29 11:05:19;;;;;;;3.33;2.10;;;23.70;99.90;;;;;;4919709;29;20559;-74
2021/07/29 11:07:46;;;;;;;3.80;2.67;;;23.60;99.90;;;;;;4920919;29;20458;-74
2021/07/29 11:10:17;;;;;;;4.30;2.27;;;23.80;99.90;;;;;;4919778;29;20923;-74
2021/07/29 11:12:47;;;;;;;5.97;2.23;;;23.80;99.90;;;;;;4920276;29;20572;-74
2021/07/29 11:15:14;;;;;;;3.43;2.63;;;23.70;99.90;;;;;;4920571;29;20472;-73
2021/07/29 11:17:41;;;;;;;3.80;2.17;;;23.40;99.90;;;;;;4920376;29;20485;-74
2021/07/29 11:20:10;;;;;;;2.40;2.20;;;23.20;99.90;;;;;;4920517;29;20926;-74
2021/07/29 11:22:45;;;;;;;5.90;2.40;;;23.30;99.90;;;;;;4920963;29;20461;-74
2021/07/29 11:25:13;;;;;;;3.60;2.40;;;23.40;99.90;;;;;;4920255;29;20476;-72
2021/07/29 11:27:41;;;;;;;9.10;2.60;;;23.40;99.90;;;;;;4920784;29;20464;-75
2021/07/29 11:30:12;;;;;;;3.23;2.40;;;23.40;99.90;;;;;;4920858;29;20909;-74
2021/07/29 11:32:40;;;;;;;6.10;2.37;;;23.60;99.90;;;;;;4920723;29;20454;-73
2021/07/29 11:35:09;;;;;;;4.73;3.37;;;24.10;99.90;;;;;;4920651;29;20465;-73
2021/07/29 11:37:38;;;;;;;2.57;2.37;;;24.60;99.90;;;;;;4920848;29;20840;-73
2021/07/29 11:40:19;;;;;;;2.60;2.20;;;24.80;99.90;;;;;;4920408;29;20911;-74
2021/07/29 11:42:48;;;;;;;3.13;2.23;;;25.20;99.90;;;;;;4920777;29;20450;-73
2021/07/29 11:45:23;;;;;;;4.50;2.20;;;25.80;99.90;;;;;;4920929;29;20938;-74
2021/07/29 11:47:50;;;;;;;4.90;2.73;;;26.10;99.90;;;;;;4920168;29;20461;-74
2021/07/29 11:50:17;;;;;;;5.47;2.17;;;26.50;99.90;;;;;;4919772;29;20501;-73
2021/07/29 11:52:52;;;;;;;3.17;1.90;;;26.90;99.90;;;;;;4919309;29;20469;-74
2021/07/29 11:55:20;;;;;;;5.00;2.30;;;27.40;99.90;;;;;;4919593;29;20460;-76
2021/07/29 11:57:49;;;;;;;3.20;2.60;;;27.40;99.90;;;;;;4919802;29;20481;-75
2021/07/29 12:00:27;;;;;;;2.13;1.90;;;27.10;99.90;;;;;;4920131;29;20480;-77
2021/07/29 12:02:54;;;;;;;3.10;1.90;;;27.00;99.90;;;;;;4920288;29;20552;-75
2021/07/29 12:05:22;;;;;;;2.23;2.03;;;26.70;99.90;;;;;;4919680;29;20461;-75
2021/07/29 12:07:49;;;;;;;2.60;1.70;;;26.60;99.90;;;;;;4919643;29;20926;-73
2021/07/29 12:10:18;;;;;;;2.00;1.70;;;26.50;99.90;;;;;;4919082;29;20473;-74
2021/07/29 12:12:45;;;;;;;4.43;1.60;;;26.30;99.90;;;;;;4918939;29;20497;-74
2021/07/29 12:15:16;;;;;;;6.03;2.37;;;25.90;99.90;;;;;;4919664;29;20469;-75
2021/07/29 12:17:47;;;;;;;4.47;1.70;;;25.60;99.90;;;;;;4918552;29;20488;-75
2021/07/29 12:20:19;;;;;;;6.23;1.60;;;25.70;99.90;;;;;;4918905;29;20450;-75
2021/07/29 12:22:46;;;;;;;2.93;1.40;;;25.60;99.20;;;;;;4919386;29;20450;-74
2021/07/29 12:25:31;;;;;;;2.73;1.30;;;25.60;97.90;;;;;;4918945;29;20465;-75
2021/07/29 12:27:59;;;;;;;1.60;1.37;;;25.40;97.70;;;;;;4919364;29;20480;-75
2021/07/29 12:30:38;;;;;;;4.63;1.60;;;25.10;97.90;;;;;;4919040;29;20804;-74
2021/07/29 12:33:07;;;;;;;3.93;1.40;;;24.80;99.70;;;;;;4918942;29;20533;-75
2021/07/29 12:35:34;;;;;;;1.80;1.50;;;24.60;99.60;;;;;;4919076;29;20797;-75
2021/07/29 12:38:04;;;;;;;1.70;1.30;;;24.50;98.90;;;;;;4918639;29;20778;-75
2021/07/29 12:40:32;;;;;;;2.03;1.53;;;24.40;99.30;;;;;;4919043;29;20998;-74
2021/07/29 12:43:18;;;;;;;1.73;1.63;;;24.20;99.90;;;;;;4918460;29;20521;-74
2021/07/29 12:45:51;;;;;;;1.80;1.70;;;24.70;99.90;;;;;;4919203;29;20465;-74
2021/07/29 12:48:17;;;;;;;3.20;1.70;;;25.10;99.90;;;;;;4918250;29;20560;-74
2021/07/29 12:50:44;;;;;;;4.83;1.90;;;25.80;99.90;;;;;;4918574;29;20461;-74
2021/07/29 12:53:13;;;;;;;2.33;1.87;;;26.50;99.40;;;;;;4918385;29;20993;-74
2021/07/29 12:55:44;;;;;;;4.63;1.90;;;26.70;97.90;;;;;;4918680;29;20493;-74
2021/07/29 12:58:14;;;;;;;2.50;1.60;;;26.80;96.70;;;;;;4918542;29;20949;-75